sensor_id;sensor_type;location;lat;lon;timestamp;P1;durP1;ratioP1;P2;durP2;ratioP2
12024;SDS011;6073;53.230;10.444;2024-02-28T00:00:00;13.05;;;9.45;;
12024;SDS011;6073;53.230;10.444;2024-02-28T00:02:25;17.25;;;10.32;;
12024;SDS011;6073;53.230;10.444;2024-02-28T00:04:52;13.40;;;9.35;;
12024;SDS011;6073;53.230;10.444;2024-02-28T00:07:18;13.13;;;9.10;;
12024;SDS011;6073;53.230;10.444;2024-02-28T00:09:44;14.02;;;9.73;;
12024;SDS011;6073;53.230;10.444;2024-02-28T00:12:09;13.52;;;8.75;;
12024;SDS011;6073;53.230;10.444;2024-02-28T00:14:35;15.35;;;9.45;;
12024;SDS011;6073;53.230;10.444;2024-02-28T00:17:00;14.43;;;9.95;;
12024;SDS011;6073;53.230;10.444;2024-02-28T00:19:26;16.25;;;10.57;;
12024;SDS011;6073;53.230;10.444;2024-02-28T00:21:51;14.35;;;9.50;;
12024;SDS011;6073;53.230;10.444;2024-02-28T00:24:17;14.25;;;9.05;;
12024;SDS011;6073;53.230;10.444;2024-02-28T00:26:42;15.43;;;9.23;;
12024;SDS011;6073;53.230;10.444;2024-02-28T00:29:09;13.85;;;9.52;;
12024;SDS011;6073;53.230;10.444;2024-02-28T00:31:34;14.48;;;9.65;;
12024;SDS011;6073;53.230;10.444;2024-02-28T00:34:00;13.85;;;9.55;;
12024;SDS011;6073;53.230;10.444;2024-02-28T00:36:26;13.27;;;8.98;;
12024;SDS011;6073;53.230;10.444;2024-02-28T00:38:51;12.95;;;8.65;;
12024;SDS011;6073;53.230;10.444;2024-02-28T00:41:17;14.30;;;9.75;;
12024;SDS011;6073;53.230;10.444;2024-02-28T00:43:42;13.63;;;9.38;;
12024;SDS011;6073;53.230;10.444;2024-02-28T00:46:08;13.05;;;9.13;;
12024;SDS011;6073;53.230;10.444;2024-02-28T00:48:37;13.90;;;9.48;;
12024;SDS011;6073;53.230;10.444;2024-02-28T00:51:03;14.90;;;8.43;;
12024;SDS011;6073;53.230;10.444;2024-02-28T00:53:28;14.48;;;9.98;;
12024;SDS011;6073;53.230;10.444;2024-02-28T00:55:54;12.93;;;8.93;;
12024;SDS011;6073;53.230;10.444;2024-02-28T00:58:20;13.88;;;9.43;;
12024;SDS011;6073;53.230;10.444;2024-02-28T01:00:47;16.02;;;8.77;;
12024;SDS011;6073;53.230;10.444;2024-02-28T01:03:13;12.80;;;9.45;;
12024;SDS011;6073;53.230;10.444;2024-02-28T01:05:40;14.68;;;8.57;;
12024;SDS011;6073;53.230;10.444;2024-02-28T01:08:06;12.23;;;8.30;;
12024;SDS011;6073;53.230;10.444;2024-02-28T01:10:32;12.27;;;8.85;;
12024;SDS011;6073;53.230;10.444;2024-02-28T01:12:58;12.82;;;8.32;;
12024;SDS011;6073;53.230;10.444;2024-02-28T01:15:24;13.43;;;8.60;;
12024;SDS011;6073;53.230;10.444;2024-02-28T01:17:49;13.52;;;8.13;;
12024;SDS011;6073;53.230;10.444;2024-02-28T01:20:15;11.02;;;7.85;;
12024;SDS011;6073;53.230;10.444;2024-02-28T01:22:40;11.98;;;8.40;;
12024;SDS011;6073;53.230;10.444;2024-02-28T01:25:06;11.00;;;7.95;;
12024;SDS011;6073;53.230;10.444;2024-02-28T01:27:32;12.60;;;8.52;;
12024;SDS011;6073;53.230;10.444;2024-02-28T01:29:57;10.82;;;7.15;;
12024;SDS011;6073;53.230;10.444;2024-02-28T01:32:23;12.27;;;7.75;;
12024;SDS011;6073;53.230;10.444;2024-02-28T01:34:48;13.70;;;8.65;;
12024;SDS011;6073;53.230;10.444;2024-02-28T01:37:14;13.82;;;8.70;;
12024;SDS011;6073;53.230;10.444;2024-02-28T01:39:39;14.85;;;8.80;;
12024;SDS011;6073;53.230;10.444;2024-02-28T01:42:05;10.27;;;7.22;;
12024;SDS011;6073;53.230;10.444;2024-02-28T01:44:30;13.35;;;8.73;;
12024;SDS011;6073;53.230;10.444;2024-02-28T01:46:58;12.20;;;7.25;;
12024;SDS011;6073;53.230;10.444;2024-02-28T01:49:24;12.35;;;7.53;;
12024;SDS011;6073;53.230;10.444;2024-02-28T01:51:50;11.65;;;7.70;;
12024;SDS011;6073;53.230;10.444;2024-02-28T01:54:19;11.30;;;8.05;;
12024;SDS011;6073;53.230;10.444;2024-02-28T01:56:46;10.35;;;7.28;;
12024;SDS011;6073;53.230;10.444;2024-02-28T01:59:12;12.93;;;8.50;;
12024;SDS011;6073;53.230;10.444;2024-02-28T02:01:38;12.65;;;7.65;;
12024;SDS011;6073;53.230;10.444;2024-02-28T02:04:04;11.82;;;7.80;;
12024;SDS011;6073;53.230;10.444;2024-02-28T02:06:30;10.02;;;7.72;;
12024;SDS011;6073;53.230;10.444;2024-02-28T02:08:57;10.63;;;7.43;;
12024;SDS011;6073;53.230;10.444;2024-02-28T02:11:22;11.88;;;7.82;;
12024;SDS011;6073;53.230;10.444;2024-02-28T02:13:53;10.10;;;7.57;;
12024;SDS011;6073;53.230;10.444;2024-02-28T02:16:19;11.73;;;7.88;;
12024;SDS011;6073;53.230;10.444;2024-02-28T02:18:47;11.52;;;7.82;;
12024;SDS011;6073;53.230;10.444;2024-02-28T02:21:14;11.88;;;7.95;;
12024;SDS011;6073;53.230;10.444;2024-02-28T02:23:42;11.68;;;7.68;;
12024;SDS011;6073;53.230;10.444;2024-02-28T02:26:08;12.30;;;7.97;;
12024;SDS011;6073;53.230;10.444;2024-02-28T02:28:33;12.82;;;7.72;;
12024;SDS011;6073;53.230;10.444;2024-02-28T02:30:59;12.57;;;8.10;;
12024;SDS011;6073;53.230;10.444;2024-02-28T02:33:25;11.38;;;7.68;;
12024;SDS011;6073;53.230;10.444;2024-02-28T02:35:51;13.48;;;8.88;;
12024;SDS011;6073;53.230;10.444;2024-02-28T02:38:18;10.27;;;7.13;;
12024;SDS011;6073;53.230;10.444;2024-02-28T02:40:43;12.75;;;7.90;;
12024;SDS011;6073;53.230;10.444;2024-02-28T02:43:09;11.65;;;7.35;;
12024;SDS011;6073;53.230;10.444;2024-02-28T02:45:35;10.32;;;7.95;;
12024;SDS011;6073;53.230;10.444;2024-02-28T02:48:00;13.57;;;9.20;;
12024;SDS011;6073;53.230;10.444;2024-02-28T02:50:26;13.90;;;8.48;;
12024;SDS011;6073;53.230;10.444;2024-02-28T02:52:51;13.15;;;8.43;;
12024;SDS011;6073;53.230;10.444;2024-02-28T02:55:17;13.82;;;8.80;;
12024;SDS011;6073;53.230;10.444;2024-02-28T02:57:42;11.88;;;8.07;;
12024;SDS011;6073;53.230;10.444;2024-02-28T03:00:09;12.85;;;8.23;;
12024;SDS011;6073;53.230;10.444;2024-02-28T03:02:35;10.32;;;6.93;;
12024;SDS011;6073;53.230;10.444;2024-02-28T03:05:03;11.73;;;8.30;;
12024;SDS011;6073;53.230;10.444;2024-02-28T03:07:29;12.82;;;8.27;;
12024;SDS011;6073;53.230;10.444;2024-02-28T03:09:55;12.27;;;7.97;;
12024;SDS011;6073;53.230;10.444;2024-02-28T03:12:20;11.68;;;7.78;;
12024;SDS011;6073;53.230;10.444;2024-02-28T03:14:46;12.13;;;7.53;;
12024;SDS011;6073;53.230;10.444;2024-02-28T03:17:13;11.13;;;8.20;;
12024;SDS011;6073;53.230;10.444;2024-02-28T03:19:40;12.15;;;8.95;;
12024;SDS011;6073;53.230;10.444;2024-02-28T03:22:06;12.30;;;7.88;;
12024;SDS011;6073;53.230;10.444;2024-02-28T03:24:31;12.60;;;7.95;;
12024;SDS011;6073;53.230;10.444;2024-02-28T03:27:00;13.05;;;8.05;;
12024;SDS011;6073;53.230;10.444;2024-02-28T03:29:28;11.57;;;7.63;;
12024;SDS011;6073;53.230;10.444;2024-02-28T03:31:54;10.68;;;7.65;;
12024;SDS011;6073;53.230;10.444;2024-02-28T03:34:20;12.48;;;8.27;;
12024;SDS011;6073;53.230;10.444;2024-02-28T03:36:45;11.38;;;7.82;;
12024;SDS011;6073;53.230;10.444;2024-02-28T03:39:11;12.52;;;8.13;;
12024;SDS011;6073;53.230;10.444;2024-02-28T03:41:37;14.38;;;8.82;;
12024;SDS011;6073;53.230;10.444;2024-02-28T03:44:03;11.82;;;7.88;;
12024;SDS011;6073;53.230;10.444;2024-02-28T03:46:29;13.57;;;9.10;;
12024;SDS011;6073;53.230;10.444;2024-02-28T03:48:54;12.77;;;8.52;;
12024;SDS011;6073;53.230;10.444;2024-02-28T03:51:20;13.43;;;8.85;;
12024;SDS011;6073;53.230;10.444;2024-02-28T03:53:46;15.85;;;9.82;;
12024;SDS011;6073;53.230;10.444;2024-02-28T03:56:11;14.80;;;9.55;;
12024;SDS011;6073;53.230;10.444;2024-02-28T03:58:37;14.10;;;9.57;;
12024;SDS011;6073;53.230;10.444;2024-02-28T04:01:03;18.90;;;9.68;;
12024;SDS011;6073;53.230;10.444;2024-02-28T04:03:28;15.70;;;9.57;;
12024;SDS011;6073;53.230;10.444;2024-02-28T04:05:54;14.60;;;8.65;;
12024;SDS011;6073;53.230;10.444;2024-02-28T04:08:20;14.80;;;9.30;;
12024;SDS011;6073;53.230;10.444;2024-02-28T04:10:45;16.48;;;9.30;;
12024;SDS011;6073;53.230;10.444;2024-02-28T04:13:11;14.18;;;8.77;;
12024;SDS011;6073;53.230;10.444;2024-02-28T04:15:36;14.48;;;9.60;;
12024;SDS011;6073;53.230;10.444;2024-02-28T04:18:03;15.93;;;9.55;;
12024;SDS011;6073;53.230;10.444;2024-02-28T04:20:29;14.77;;;9.13;;
12024;SDS011;6073;53.230;10.444;2024-02-28T04:22:54;15.65;;;10.07;;
12024;SDS011;6073;53.230;10.444;2024-02-28T04:25:20;14.95;;;9.43;;
12024;SDS011;6073;53.230;10.444;2024-02-28T04:27:45;14.00;;;9.30;;
12024;SDS011;6073;53.230;10.444;2024-02-28T04:30:12;15.40;;;9.70;;
12024;SDS011;6073;53.230;10.444;2024-02-28T04:32:38;15.40;;;9.73;;
12024;SDS011;6073;53.230;10.444;2024-02-28T04:35:03;16.42;;;9.88;;
12024;SDS011;6073;53.230;10.444;2024-02-28T04:37:29;15.40;;;9.75;;
12024;SDS011;6073;53.230;10.444;2024-02-28T04:39:54;16.90;;;10.07;;
12024;SDS011;6073;53.230;10.444;2024-02-28T04:42:20;14.10;;;8.73;;
12024;SDS011;6073;53.230;10.444;2024-02-28T04:44:45;15.43;;;9.05;;
12024;SDS011;6073;53.230;10.444;2024-02-28T04:47:11;13.70;;;8.73;;
12024;SDS011;6073;53.230;10.444;2024-02-28T04:49:37;16.67;;;10.00;;
12024;SDS011;6073;53.230;10.444;2024-02-28T04:52:03;14.95;;;9.60;;
12024;SDS011;6073;53.230;10.444;2024-02-28T04:54:30;15.70;;;9.43;;
12024;SDS011;6073;53.230;10.444;2024-02-28T04:56:55;14.80;;;8.77;;
12024;SDS011;6073;53.230;10.444;2024-02-28T04:59:21;13.90;;;9.65;;
12024;SDS011;6073;53.230;10.444;2024-02-28T05:01:46;15.20;;;8.98;;
12024;SDS011;6073;53.230;10.444;2024-02-28T05:04:13;14.10;;;8.63;;
12024;SDS011;6073;53.230;10.444;2024-02-28T05:06:38;14.18;;;8.75;;
12024;SDS011;6073;53.230;10.444;2024-02-28T05:09:04;13.52;;;9.00;;
12024;SDS011;6073;53.230;10.444;2024-02-28T05:11:30;14.10;;;9.05;;
12024;SDS011;6073;53.230;10.444;2024-02-28T05:13:55;14.57;;;9.73;;
12024;SDS011;6073;53.230;10.444;2024-02-28T05:16:21;15.25;;;8.20;;
12024;SDS011;6073;53.230;10.444;2024-02-28T05:18:47;14.38;;;8.60;;
12024;SDS011;6073;53.230;10.444;2024-02-28T05:21:13;14.45;;;9.13;;
12024;SDS011;6073;53.230;10.444;2024-02-28T05:23:39;16.52;;;9.38;;
12024;SDS011;6073;53.230;10.444;2024-02-28T05:26:05;12.88;;;8.30;;
12024;SDS011;6073;53.230;10.444;2024-02-28T05:28:35;15.00;;;8.48;;
12024;SDS011;6073;53.230;10.444;2024-02-28T05:31:20;14.68;;;8.55;;
12024;SDS011;6073;53.230;10.444;2024-02-28T05:33:50;12.50;;;7.65;;
12024;SDS011;6073;53.230;10.444;2024-02-28T05:36:17;14.73;;;8.50;;
12024;SDS011;6073;53.230;10.444;2024-02-28T05:38:43;12.13;;;8.23;;
12024;SDS011;6073;53.230;10.444;2024-02-28T05:41:09;13.35;;;8.00;;
12024;SDS011;6073;53.230;10.444;2024-02-28T05:43:34;12.63;;;7.82;;
12024;SDS011;6073;53.230;10.444;2024-02-28T05:46:02;13.43;;;8.00;;
12024;SDS011;6073;53.230;10.444;2024-02-28T05:48:28;12.43;;;7.78;;
12024;SDS011;6073;53.230;10.444;2024-02-28T05:50:54;9.95;;;7.43;;
12024;SDS011;6073;53.230;10.444;2024-02-28T05:53:19;12.60;;;7.80;;
12024;SDS011;6073;53.230;10.444;2024-02-28T05:55:45;13.50;;;7.45;;
12024;SDS011;6073;53.230;10.444;2024-02-28T05:58:10;14.85;;;7.93;;
12024;SDS011;6073;53.230;10.444;2024-02-28T06:00:36;14.52;;;8.02;;
12024;SDS011;6073;53.230;10.444;2024-02-28T06:03:02;11.88;;;7.60;;
12024;SDS011;6073;53.230;10.444;2024-02-28T06:05:28;13.70;;;8.10;;
12024;SDS011;6073;53.230;10.444;2024-02-28T06:07:53;11.52;;;7.53;;
12024;SDS011;6073;53.230;10.444;2024-02-28T06:10:19;12.13;;;8.25;;
12024;SDS011;6073;53.230;10.444;2024-02-28T06:12:46;12.65;;;8.50;;
12024;SDS011;6073;53.230;10.444;2024-02-28T06:15:11;12.93;;;7.78;;
12024;SDS011;6073;53.230;10.444;2024-02-28T06:17:37;12.77;;;8.20;;
12024;SDS011;6073;53.230;10.444;2024-02-28T06:20:02;10.63;;;6.95;;
12024;SDS011;6073;53.230;10.444;2024-02-28T06:22:28;11.23;;;7.45;;
12024;SDS011;6073;53.230;10.444;2024-02-28T06:24:53;12.52;;;8.18;;
12024;SDS011;6073;53.230;10.444;2024-02-28T06:27:19;13.77;;;7.88;;
12024;SDS011;6073;53.230;10.444;2024-02-28T06:29:45;11.77;;;7.00;;
12024;SDS011;6073;53.230;10.444;2024-02-28T06:32:10;11.20;;;7.88;;
12024;SDS011;6073;53.230;10.444;2024-02-28T06:34:36;13.15;;;7.32;;
12024;SDS011;6073;53.230;10.444;2024-02-28T06:37:01;13.88;;;8.57;;
12024;SDS011;6073;53.230;10.444;2024-02-28T06:39:27;14.52;;;8.25;;
12024;SDS011;6073;53.230;10.444;2024-02-28T06:41:52;13.38;;;7.43;;
12024;SDS011;6073;53.230;10.444;2024-02-28T06:44:18;12.07;;;8.27;;
12024;SDS011;6073;53.230;10.444;2024-02-28T06:46:44;10.82;;;7.28;;
12024;SDS011;6073;53.230;10.444;2024-02-28T06:49:10;11.98;;;7.28;;
12024;SDS011;6073;53.230;10.444;2024-02-28T06:51:35;10.73;;;7.40;;
12024;SDS011;6073;53.230;10.444;2024-02-28T06:54:01;11.77;;;7.55;;
12024;SDS011;6073;53.230;10.444;2024-02-28T06:56:26;10.75;;;6.90;;
12024;SDS011;6073;53.230;10.444;2024-02-28T06:58:52;10.60;;;7.28;;
12024;SDS011;6073;53.230;10.444;2024-02-28T07:01:17;15.02;;;9.02;;
12024;SDS011;6073;53.230;10.444;2024-02-28T07:03:43;13.05;;;7.30;;
12024;SDS011;6073;53.230;10.444;2024-02-28T07:06:09;12.48;;;8.18;;
12024;SDS011;6073;53.230;10.444;2024-02-28T07:08:34;12.73;;;7.72;;
12024;SDS011;6073;53.230;10.444;2024-02-28T07:11:00;14.18;;;8.30;;
12024;SDS011;6073;53.230;10.444;2024-02-28T07:13:26;12.35;;;7.95;;
12024;SDS011;6073;53.230;10.444;2024-02-28T07:15:52;13.68;;;7.55;;
12024;SDS011;6073;53.230;10.444;2024-02-28T07:18:19;13.10;;;7.78;;
12024;SDS011;6073;53.230;10.444;2024-02-28T07:20:45;12.63;;;7.43;;
12024;SDS011;6073;53.230;10.444;2024-02-28T07:23:11;12.18;;;6.88;;
12024;SDS011;6073;53.230;10.444;2024-02-28T07:25:37;11.48;;;7.47;;
12024;SDS011;6073;53.230;10.444;2024-02-28T07:28:02;13.60;;;7.95;;
12024;SDS011;6073;53.230;10.444;2024-02-28T07:30:28;12.52;;;7.95;;
12024;SDS011;6073;53.230;10.444;2024-02-28T07:32:54;13.10;;;7.97;;
12024;SDS011;6073;53.230;10.444;2024-02-28T07:35:20;11.55;;;7.50;;
12024;SDS011;6073;53.230;10.444;2024-02-28T07:37:46;14.00;;;8.07;;
12024;SDS011;6073;53.230;10.444;2024-02-28T07:40:11;12.70;;;7.50;;
12024;SDS011;6073;53.230;10.444;2024-02-28T07:42:37;10.38;;;7.32;;
12024;SDS011;6073;53.230;10.444;2024-02-28T07:45:03;12.75;;;7.35;;
12024;SDS011;6073;53.230;10.444;2024-02-28T07:47:29;11.07;;;6.88;;
12024;SDS011;6073;53.230;10.444;2024-02-28T07:49:54;10.02;;;6.85;;
12024;SDS011;6073;53.230;10.444;2024-02-28T07:52:20;11.32;;;7.22;;
12024;SDS011;6073;53.230;10.444;2024-02-28T07:54:46;12.27;;;7.45;;
12024;SDS011;6073;53.230;10.444;2024-02-28T07:57:11;11.55;;;6.63;;
12024;SDS011;6073;53.230;10.444;2024-02-28T07:59:43;10.27;;;6.78;;
12024;SDS011;6073;53.230;10.444;2024-02-28T08:02:09;9.32;;;6.72;;
12024;SDS011;6073;53.230;10.444;2024-02-28T08:04:37;10.88;;;7.07;;
12024;SDS011;6073;53.230;10.444;2024-02-28T08:07:03;12.85;;;7.20;;
12024;SDS011;6073;53.230;10.444;2024-02-28T08:09:29;11.40;;;7.38;;
12024;SDS011;6073;53.230;10.444;2024-02-28T08:11:55;9.75;;;6.10;;
12024;SDS011;6073;53.230;10.444;2024-02-28T08:14:22;10.90;;;7.55;;
12024;SDS011;6073;53.230;10.444;2024-02-28T08:16:48;13.90;;;8.18;;
12024;SDS011;6073;53.230;10.444;2024-02-28T08:19:13;13.13;;;7.97;;
12024;SDS011;6073;53.230;10.444;2024-02-28T08:21:39;11.98;;;7.47;;
12024;SDS011;6073;53.230;10.444;2024-02-28T08:24:05;10.57;;;6.97;;
12024;SDS011;6073;53.230;10.444;2024-02-28T08:26:31;12.68;;;7.50;;
12024;SDS011;6073;53.230;10.444;2024-02-28T08:28:56;12.57;;;8.75;;
12024;SDS011;6073;53.230;10.444;2024-02-28T08:31:22;13.88;;;8.43;;
12024;SDS011;6073;53.230;10.444;2024-02-28T08:33:48;11.48;;;8.00;;
12024;SDS011;6073;53.230;10.444;2024-02-28T08:36:13;12.60;;;8.20;;
12024;SDS011;6073;53.230;10.444;2024-02-28T08:38:40;12.07;;;8.23;;
12024;SDS011;6073;53.230;10.444;2024-02-28T08:41:05;15.73;;;9.70;;
12024;SDS011;6073;53.230;10.444;2024-02-28T08:43:32;12.93;;;8.02;;
12024;SDS011;6073;53.230;10.444;2024-02-28T08:45:58;14.35;;;7.82;;
12024;SDS011;6073;53.230;10.444;2024-02-28T08:48:24;13.85;;;9.15;;
12024;SDS011;6073;53.230;10.444;2024-02-28T08:50:49;14.57;;;8.40;;
12024;SDS011;6073;53.230;10.444;2024-02-28T08:53:15;13.38;;;8.73;;
12024;SDS011;6073;53.230;10.444;2024-02-28T08:55:40;12.73;;;8.65;;
12024;SDS011;6073;53.230;10.444;2024-02-28T08:58:06;14.50;;;8.95;;
12024;SDS011;6073;53.230;10.444;2024-02-28T09:00:31;15.80;;;9.27;;
12024;SDS011;6073;53.230;10.444;2024-02-28T09:02:57;14.52;;;8.57;;
12024;SDS011;6073;53.230;10.444;2024-02-28T09:05:23;16.17;;;9.93;;
12024;SDS011;6073;53.230;10.444;2024-02-28T09:07:48;17.63;;;10.27;;
12024;SDS011;6073;53.230;10.444;2024-02-28T09:10:16;15.45;;;9.57;;
12024;SDS011;6073;53.230;10.444;2024-02-28T09:12:48;14.52;;;9.38;;
12024;SDS011;6073;53.230;10.444;2024-02-28T09:15:14;15.57;;;10.18;;
12024;SDS011;6073;53.230;10.444;2024-02-28T09:17:39;15.35;;;9.55;;
12024;SDS011;6073;53.230;10.444;2024-02-28T09:20:05;15.88;;;10.65;;
12024;SDS011;6073;53.230;10.444;2024-02-28T09:22:32;17.13;;;10.65;;
12024;SDS011;6073;53.230;10.444;2024-02-28T09:24:57;18.80;;;11.65;;
12024;SDS011;6073;53.230;10.444;2024-02-28T09:27:23;16.80;;;11.90;;
12024;SDS011;6073;53.230;10.444;2024-02-28T09:29:49;18.13;;;10.95;;
12024;SDS011;6073;53.230;10.444;2024-02-28T09:32:15;19.23;;;12.68;;
12024;SDS011;6073;53.230;10.444;2024-02-28T09:34:41;20.58;;;12.15;;
12024;SDS011;6073;53.230;10.444;2024-02-28T09:37:06;20.95;;;12.52;;
12024;SDS011;6073;53.230;10.444;2024-02-28T09:39:32;18.55;;;11.20;;
12024;SDS011;6073;53.230;10.444;2024-02-28T09:41:57;19.77;;;10.82;;
12024;SDS011;6073;53.230;10.444;2024-02-28T09:44:23;20.90;;;12.25;;
12024;SDS011;6073;53.230;10.444;2024-02-28T09:46:52;18.25;;;11.18;;
12024;SDS011;6073;53.230;10.444;2024-02-28T09:49:18;19.95;;;11.38;;
12024;SDS011;6073;53.230;10.444;2024-02-28T09:51:44;17.80;;;10.73;;
12024;SDS011;6073;53.230;10.444;2024-02-28T09:54:11;17.42;;;11.88;;
12024;SDS011;6073;53.230;10.444;2024-02-28T09:56:37;18.50;;;11.88;;
12024;SDS011;6073;53.230;10.444;2024-02-28T09:59:03;19.13;;;11.65;;
12024;SDS011;6073;53.230;10.444;2024-02-28T10:01:29;17.95;;;11.52;;
12024;SDS011;6073;53.230;10.444;2024-02-28T10:03:54;20.00;;;11.55;;
12024;SDS011;6073;53.230;10.444;2024-02-28T10:06:21;18.55;;;11.43;;
12024;SDS011;6073;53.230;10.444;2024-02-28T10:08:47;17.00;;;10.85;;
12024;SDS011;6073;53.230;10.444;2024-02-28T10:11:20;18.13;;;10.80;;
12024;SDS011;6073;53.230;10.444;2024-02-28T10:13:50;16.10;;;10.73;;
12024;SDS011;6073;53.230;10.444;2024-02-28T10:16:17;18.65;;;10.65;;
12024;SDS011;6073;53.230;10.444;2024-02-28T10:18:46;18.02;;;11.75;;
12024;SDS011;6073;53.230;10.444;2024-02-28T10:21:12;17.50;;;11.00;;
12024;SDS011;6073;53.230;10.444;2024-02-28T10:23:39;18.10;;;11.38;;
12024;SDS011;6073;53.230;10.444;2024-02-28T10:26:04;15.15;;;10.77;;
12024;SDS011;6073;53.230;10.444;2024-02-28T10:28:30;15.52;;;10.52;;
12024;SDS011;6073;53.230;10.444;2024-02-28T10:30:55;17.95;;;10.90;;
12024;SDS011;6073;53.230;10.444;2024-02-28T10:33:22;20.17;;;11.32;;
12024;SDS011;6073;53.230;10.444;2024-02-28T10:35:53;15.45;;;10.05;;
12024;SDS011;6073;53.230;10.444;2024-02-28T10:38:19;17.45;;;10.48;;
12024;SDS011;6073;53.230;10.444;2024-02-28T10:40:46;19.10;;;11.50;;
12024;SDS011;6073;53.230;10.444;2024-02-28T10:43:12;18.67;;;12.07;;
12024;SDS011;6073;53.230;10.444;2024-02-28T10:45:42;18.58;;;11.50;;
12024;SDS011;6073;53.230;10.444;2024-02-28T10:48:07;16.70;;;11.25;;
12024;SDS011;6073;53.230;10.444;2024-02-28T10:50:35;16.60;;;10.68;;
12024;SDS011;6073;53.230;10.444;2024-02-28T10:53:03;17.33;;;10.60;;
12024;SDS011;6073;53.230;10.444;2024-02-28T10:55:33;15.13;;;9.90;;
12024;SDS011;6073;53.230;10.444;2024-02-28T10:58:02;17.42;;;10.73;;
12024;SDS011;6073;53.230;10.444;2024-02-28T11:00:32;17.30;;;10.73;;
12024;SDS011;6073;53.230;10.444;2024-02-28T11:03:00;17.70;;;10.18;;
12024;SDS011;6073;53.230;10.444;2024-02-28T11:05:38;16.15;;;10.00;;
12024;SDS011;6073;53.230;10.444;2024-02-28T11:08:27;13.55;;;9.18;;
12024;SDS011;6073;53.230;10.444;2024-02-28T11:10:56;14.90;;;9.60;;
12024;SDS011;6073;53.230;10.444;2024-02-28T11:13:30;18.40;;;10.30;;
12024;SDS011;6073;53.230;10.444;2024-02-28T11:16:06;14.80;;;9.52;;
12024;SDS011;6073;53.230;10.444;2024-02-28T11:18:35;14.15;;;9.40;;
12024;SDS011;6073;53.230;10.444;2024-02-28T11:21:01;15.70;;;9.95;;
12024;SDS011;6073;53.230;10.444;2024-02-28T11:23:35;16.60;;;10.05;;
12024;SDS011;6073;53.230;10.444;2024-02-28T11:26:02;16.75;;;10.13;;
12024;SDS011;6073;53.230;10.444;2024-02-28T11:28:28;15.48;;;10.15;;
12024;SDS011;6073;53.230;10.444;2024-02-28T11:30:54;14.70;;;9.80;;
12024;SDS011;6073;53.230;10.444;2024-02-28T11:33:19;13.60;;;10.13;;
12024;SDS011;6073;53.230;10.444;2024-02-28T11:35:53;13.63;;;9.25;;
12024;SDS011;6073;53.230;10.444;2024-02-28T11:38:24;16.25;;;10.18;;
12024;SDS011;6073;53.230;10.444;2024-02-28T11:40:50;15.35;;;9.70;;
12024;SDS011;6073;53.230;10.444;2024-02-28T11:43:16;14.00;;;8.75;;
12024;SDS011;6073;53.230;10.444;2024-02-28T11:45:42;14.10;;;9.52;;
12024;SDS011;6073;53.230;10.444;2024-02-28T11:48:08;12.50;;;8.63;;
12024;SDS011;6073;53.230;10.444;2024-02-28T11:50:34;15.95;;;9.23;;
12024;SDS011;6073;53.230;10.444;2024-02-28T11:53:02;14.10;;;8.60;;
12024;SDS011;6073;53.230;10.444;2024-02-28T11:55:29;15.27;;;9.13;;
12024;SDS011;6073;53.230;10.444;2024-02-28T11:57:55;12.73;;;8.43;;
12024;SDS011;6073;53.230;10.444;2024-02-28T12:00:21;13.43;;;8.73;;
12024;SDS011;6073;53.230;10.444;2024-02-28T12:02:46;14.77;;;8.90;;
12024;SDS011;6073;53.230;10.444;2024-02-28T12:05:12;14.85;;;9.57;;
12024;SDS011;6073;53.230;10.444;2024-02-28T12:07:38;10.70;;;7.10;;
12024;SDS011;6073;53.230;10.444;2024-02-28T12:10:04;14.38;;;9.10;;
12024;SDS011;6073;53.230;10.444;2024-02-28T12:12:31;12.60;;;7.82;;
12024;SDS011;6073;53.230;10.444;2024-02-28T12:14:57;14.48;;;8.13;;
12024;SDS011;6073;53.230;10.444;2024-02-28T12:17:25;10.60;;;7.88;;
12024;SDS011;6073;53.230;10.444;2024-02-28T12:19:51;14.43;;;8.05;;
12024;SDS011;6073;53.230;10.444;2024-02-28T12:22:17;12.98;;;8.02;;
12024;SDS011;6073;53.230;10.444;2024-02-28T12:24:43;12.05;;;8.55;;
12024;SDS011;6073;53.230;10.444;2024-02-28T12:27:08;12.20;;;8.40;;
12024;SDS011;6073;53.230;10.444;2024-02-28T12:29:34;12.50;;;8.30;;
12024;SDS011;6073;53.230;10.444;2024-02-28T12:31:59;10.10;;;7.38;;
12024;SDS011;6073;53.230;10.444;2024-02-28T12:34:25;13.23;;;7.93;;
12024;SDS011;6073;53.230;10.444;2024-02-28T12:36:51;13.73;;;8.43;;
12024;SDS011;6073;53.230;10.444;2024-02-28T12:39:17;12.63;;;7.88;;
12024;SDS011;6073;53.230;10.444;2024-02-28T12:41:42;12.48;;;8.35;;
12024;SDS011;6073;53.230;10.444;2024-02-28T12:44:08;12.23;;;8.10;;
12024;SDS011;6073;53.230;10.444;2024-02-28T12:46:34;13.93;;;9.25;;
12024;SDS011;6073;53.230;10.444;2024-02-28T12:49:00;14.50;;;8.90;;
12024;SDS011;6073;53.230;10.444;2024-02-28T12:51:44;13.60;;;8.95;;
12024;SDS011;6073;53.230;10.444;2024-02-28T12:54:11;13.90;;;8.82;;
12024;SDS011;6073;53.230;10.444;2024-02-28T12:56:39;12.90;;;8.55;;
12024;SDS011;6073;53.230;10.444;2024-02-28T12:59:07;15.25;;;8.85;;
12024;SDS011;6073;53.230;10.444;2024-02-28T13:01:33;13.32;;;9.57;;
12024;SDS011;6073;53.230;10.444;2024-02-28T13:03:59;13.80;;;8.95;;
12024;SDS011;6073;53.230;10.444;2024-02-28T13:06:25;17.10;;;9.85;;
12024;SDS011;6073;53.230;10.444;2024-02-28T13:08:50;13.98;;;8.43;;
12024;SDS011;6073;53.230;10.444;2024-02-28T13:11:19;12.57;;;8.70;;
12024;SDS011;6073;53.230;10.444;2024-02-28T13:13:47;15.35;;;8.82;;
12024;SDS011;6073;53.230;10.444;2024-02-28T13:16:14;13.40;;;8.32;;
12024;SDS011;6073;53.230;10.444;2024-02-28T13:18:40;13.07;;;8.73;;
12024;SDS011;6073;53.230;10.444;2024-02-28T13:21:05;13.50;;;7.75;;
12024;SDS011;6073;53.230;10.444;2024-02-28T13:23:31;14.07;;;7.80;;
12024;SDS011;6073;53.230;10.444;2024-02-28T13:25:57;14.43;;;8.57;;
12024;SDS011;6073;53.230;10.444;2024-02-28T13:28:22;14.38;;;8.60;;
12024;SDS011;6073;53.230;10.444;2024-02-28T13:31:00;13.63;;;8.98;;
12024;SDS011;6073;53.230;10.444;2024-02-28T13:33:26;11.32;;;7.65;;
12024;SDS011;6073;53.230;10.444;2024-02-28T13:35:52;11.65;;;7.32;;
12024;SDS011;6073;53.230;10.444;2024-02-28T13:38:19;9.85;;;7.25;;
12024;SDS011;6073;53.230;10.444;2024-02-28T13:40:48;10.38;;;6.70;;
12024;SDS011;6073;53.230;10.444;2024-02-28T13:43:14;7.60;;;5.57;;
12024;SDS011;6073;53.230;10.444;2024-02-28T13:45:41;6.43;;;4.60;;
12024;SDS011;6073;53.230;10.444;2024-02-28T13:48:15;5.88;;;3.90;;
12024;SDS011;6073;53.230;10.444;2024-02-28T13:50:52;6.72;;;4.07;;
12024;SDS011;6073;53.230;10.444;2024-02-28T13:53:18;5.40;;;3.90;;
12024;SDS011;6073;53.230;10.444;2024-02-28T13:55:44;6.72;;;4.43;;
12024;SDS011;6073;53.230;10.444;2024-02-28T13:58:13;7.50;;;4.82;;
12024;SDS011;6073;53.230;10.444;2024-02-28T14:00:43;6.32;;;5.03;;
12024;SDS011;6073;53.230;10.444;2024-02-28T14:03:10;8.25;;;4.72;;
12024;SDS011;6073;53.230;10.444;2024-02-28T14:05:36;8.88;;;5.65;;
12024;SDS011;6073;53.230;10.444;2024-02-28T14:08:01;9.27;;;5.80;;
12024;SDS011;6073;53.230;10.444;2024-02-28T14:10:29;9.93;;;6.30;;
12024;SDS011;6073;53.230;10.444;2024-02-28T14:12:55;11.23;;;6.45;;
12024;SDS011;6073;53.230;10.444;2024-02-28T14:15:21;8.63;;;5.65;;
12024;SDS011;6073;53.230;10.444;2024-02-28T14:17:50;7.93;;;5.63;;
12024;SDS011;6073;53.230;10.444;2024-02-28T14:20:16;8.73;;;5.78;;
12024;SDS011;6073;53.230;10.444;2024-02-28T14:22:42;9.77;;;7.00;;
12024;SDS011;6073;53.230;10.444;2024-02-28T14:25:15;11.27;;;6.65;;
12024;SDS011;6073;53.230;10.444;2024-02-28T14:27:43;10.27;;;6.53;;